createdAt,value
2018-05-18T00:00:00.297Z,80.91
2018-05-18T00:00:04.455Z,80.72
2018-05-18T00:00:08.668Z,80.72
2018-05-18T00:00:12.985Z,80.72
2018-05-18T00:00:17.086Z,80.72
2018-05-18T00:00:21.187Z,80.81
2018-05-18T00:00:25.395Z,80.81
2018-05-18T00:00:29.501Z,80.62
2018-05-18T00:00:33.385Z,80.62
2018-05-18T00:00:37.487Z,81.01
2018-05-18T00:00:41.807Z,81.1
2018-05-18T00:00:46.123Z,80.91
2018-05-18T00:00:50.338Z,81.01
2018-05-18T00:00:54.660Z,80.91
2018-05-18T00:00:58.977Z,80.81
2018-05-18T00:01:03.083Z,81.1
2018-05-18T00:01:07.412Z,81.2
2018-05-18T00:01:11.624Z,81.1
2018-05-18T00:01:15.941Z,80.81
2018-05-18T00:01:20.264Z,80.81
2018-05-18T00:01:24.473Z,80.91
2018-05-18T00:01:28.579Z,80.72
2018-05-18T00:01:32.788Z,80.62
2018-05-18T00:01:37.010Z,80.81
2018-05-18T00:01:41.109Z,81.01
2018-05-18T00:01:45.320Z,81.1
2018-05-18T00:01:49.532Z,80.91
2018-05-18T00:01:53.761Z,80.91
2018-05-18T00:01:58.080Z,81.2
2018-05-18T00:02:02.410Z,80.91
2018-05-18T00:02:06.407Z,81.01
2018-05-18T00:02:10.403Z,80.91
2018-05-18T00:02:14.616Z,81.1
2018-05-18T00:02:18.938Z,81.1
2018-05-18T00:02:23.042Z,80.91
2018-05-18T00:02:27.113Z,80.91
2018-05-18T00:02:31.219Z,80.81
2018-05-18T00:02:35.540Z,80.91
2018-05-18T00:02:39.650Z,80.72
2018-05-18T00:02:43.964Z,80.91
2018-05-18T00:02:48.182Z,81.1
2018-05-18T00:02:52.284Z,81.1
2018-05-18T00:02:56.380Z,80.91
2018-05-18T00:03:00.485Z,80.81
2018-05-18T00:03:04.801Z,81.58
2018-05-18T00:03:09.018Z,81.2
2018-05-18T00:03:13.234Z,81.29
2018-05-18T00:03:17.230Z,81.29
2018-05-18T00:03:21.445Z,81.44
2018-05-18T00:03:25.762Z,81.58
2018-05-18T00:03:30.075Z,81.67
2018-05-18T00:03:34.168Z,81.67
2018-05-18T00:03:38.370Z,81.86
2018-05-18T00:03:42.688Z,81.77
2018-05-18T00:03:47.002Z,81.77
2018-05-18T00:03:51.104Z,81.86
2018-05-18T00:03:55.204Z,81.77
2018-05-18T00:03:59.520Z,81.96
2018-05-18T00:04:03.738Z,81.86
2018-05-18T00:04:07.947Z,82.11
2018-05-18T00:04:12.158Z,81.86
2018-05-18T00:04:16.368Z,81.96
2018-05-18T00:04:20.686Z,81.82
2018-05-18T00:04:24.899Z,81.96
2018-05-18T00:04:29.004Z,81.86
2018-05-18T00:04:33.105Z,82.06
2018-05-18T00:04:37.320Z,82.11
2018-05-18T00:04:41.640Z,82.15
2018-05-18T00:04:45.855Z,82.06
2018-05-18T00:04:49.858Z,81.92
2018-05-18T00:04:54.073Z,82.15
2018-05-18T00:04:58.275Z,82.2
2018-05-18T00:05:02.600Z,82.3
2018-05-18T00:05:06.819Z,82.11
2018-05-18T00:05:10.922Z,82.43
2018-05-18T00:05:15.022Z,82.24
2018-05-18T00:05:19.337Z,82.01
2018-05-18T00:05:23.552Z,82.06
2018-05-18T00:05:27.763Z,82.11
2018-05-18T00:05:31.867Z,82.2
2018-05-18T00:05:35.972Z,82.49
2018-05-18T00:05:40.187Z,82.4
2018-05-18T00:05:44.408Z,82.59
2018-05-18T00:05:48.736Z,82.34
2018-05-18T00:05:52.846Z,82.43
2018-05-18T00:05:57.091Z,82.24
2018-05-18T00:06:01.414Z,82.2
2018-05-18T00:06:05.305Z,82.43
2018-05-18T00:06:09.409Z,82.49
2018-05-18T00:06:13.521Z,82.53
2018-05-18T00:06:17.839Z,82.43
2018-05-18T00:06:22.162Z,82.49
2018-05-18T00:06:26.382Z,82.59
2018-05-18T00:06:30.603Z,82.11
2018-05-18T00:06:34.926Z,82.2
2018-05-18T00:06:39.038Z,82.24
2018-05-18T00:06:43.034Z,82.4
2018-05-18T00:06:47.361Z,82.63
2018-05-18T00:06:51.468Z,82.53
2018-05-18T00:06:55.683Z,82.49
2018-05-18T00:06:59.786Z,82.59
2018-05-18T00:07:04.054Z,82.34
2018-05-18T00:07:08.162Z,82.59
2018-05-18T00:07:12.378Z,82.4
2018-05-18T00:07:16.482Z,82.78
2018-05-18T00:07:20.700Z,82.72
2018-05-18T00:07:24.814Z,82.59
2018-05-18T00:07:29.149Z,82.78
2018-05-18T00:07:33.253Z,82.68
2018-05-18T00:07:37.467Z,82.49
2018-05-18T00:07:41.677Z,82.53
2018-05-18T00:07:45.890Z,82.53
2018-05-18T00:07:50.098Z,82.11
2018-05-18T00:07:54.204Z,82.53
2018-05-18T00:07:58.422Z,82.91
2018-05-18T00:08:02.794Z,82.49
2018-05-18T00:08:07.017Z,82.53
2018-05-18T00:08:11.127Z,82.53
2018-05-18T00:08:15.123Z,82.59
2018-05-18T00:08:19.443Z,82.63
2018-05-18T00:08:23.660Z,82.72
2018-05-18T00:08:27.873Z,82.63
2018-05-18T00:08:32.094Z,83.11
2018-05-18T00:08:36.421Z,82.53
2018-05-18T00:08:40.637Z,82.72
2018-05-18T00:08:44.974Z,82.72
2018-05-18T00:08:49.189Z,82.59
2018-05-18T00:08:53.304Z,82.72
2018-05-18T00:08:57.522Z,82.63
2018-05-18T00:09:01.840Z,82.78
2018-05-18T00:09:06.056Z,83.29
2018-05-18T00:09:10.280Z,83.16
2018-05-18T00:09:14.385Z,83.11
2018-05-18T00:09:18.499Z,82.97
2018-05-18T00:09:22.722Z,83.29
2018-05-18T00:09:26.884Z,83.01
2018-05-18T00:09:30.892Z,82.87
2018-05-18T00:09:34.792Z,83.11
2018-05-18T00:09:39.008Z,83.39
2018-05-18T00:09:43.224Z,83.25
2018-05-18T00:09:47.327Z,83.54
2018-05-18T00:09:51.547Z,83.2
2018-05-18T00:09:55.663Z,83.39
2018-05-18T00:09:59.764Z,83.48
2018-05-18T00:10:03.975Z,82.91
2018-05-18T00:10:08.087Z,82.87
2018-05-18T00:10:12.089Z,83.16
2018-05-18T00:10:16.408Z,83.35
2018-05-18T00:10:20.737Z,83.16
2018-05-18T00:10:24.953Z,83.11
2018-05-18T00:10:29.062Z,83.06
2018-05-18T00:10:33.272Z,83.44
2018-05-18T00:10:37.370Z,83.39
2018-05-18T00:10:41.483Z,83.44
2018-05-18T00:10:45.858Z,83.54
2018-05-18T00:10:50.069Z,83.35
2018-05-18T00:10:54.189Z,83.35
2018-05-18T00:10:58.400Z,83.58
2018-05-18T00:11:02.393Z,83.44
2018-05-18T00:11:06.499Z,83.67
2018-05-18T00:11:10.715Z,83.35
2018-05-18T00:11:15.056Z,83.35
2018-05-18T00:11:19.269Z,84.25
2018-05-18T00:11:23.589Z,84.11
2018-05-18T00:11:27.804Z,83.54
2018-05-18T00:11:31.913Z,83.54
2018-05-18T00:11:35.910Z,84.11
2018-05-18T00:11:40.018Z,84.06
2018-05-18T00:11:43.913Z,84.01
2018-05-18T00:11:47.918Z,84.06
2018-05-18T00:11:52.139Z,84.11
2018-05-18T00:11:56.037Z,84.11
2018-05-18T00:11:59.922Z,83.92
2018-05-18T00:12:03.916Z,83.44
2018-05-18T00:12:08.023Z,84.01
2018-05-18T00:12:12.125Z,84.01
2018-05-18T00:12:16.229Z,84.11
2018-05-18T00:12:20.442Z,84.01
2018-05-18T00:12:24.651Z,84.01
2018-05-18T00:12:28.863Z,84.01
2018-05-18T00:12:32.966Z,83.73
2018-05-18T00:12:36.962Z,83.83
2018-05-18T00:12:41.175Z,84.01
2018-05-18T00:12:45.276Z,83.58
2018-05-18T00:12:49.601Z,84.2
2018-05-18T00:12:53.600Z,83.73
2018-05-18T00:12:57.914Z,83.92
2018-05-18T00:13:02.123Z,83.92
2018-05-18T00:13:06.225Z,84.01
2018-05-18T00:13:10.647Z,84.01
2018-05-18T00:13:14.854Z,83.83
2018-05-18T00:13:19.063Z,83.83
2018-05-18T00:13:23.401Z,83.83
2018-05-18T00:13:27.716Z,83.83
2018-05-18T00:13:32.031Z,83.54
2018-05-18T00:13:36.248Z,84.2
2018-05-18T00:13:40.576Z,84.3
2018-05-18T00:13:44.896Z,84.34
2018-05-18T00:13:49.117Z,84.4
2018-05-18T00:13:53.439Z,84.4
2018-05-18T00:13:57.784Z,84.11
2018-05-18T00:14:01.891Z,84.3
2018-05-18T00:14:06.157Z,84.11
2018-05-18T00:14:10.377Z,84.3
2018-05-18T00:14:14.371Z,84.11
2018-05-18T00:14:18.725Z,84.2
2018-05-18T00:14:22.933Z,84.2
2018-05-18T00:14:27.151Z,84.49
2018-05-18T00:14:31.365Z,84.59
2018-05-18T00:14:35.686Z,84.49
2018-05-18T00:14:39.899Z,84.4
2018-05-18T00:14:44.224Z,84.4
2018-05-18T00:14:48.478Z,84.4
2018-05-18T00:14:52.595Z,83.83
2018-05-18T00:14:56.815Z,83.73
2018-05-18T00:15:01.027Z,83.35
2018-05-18T00:15:05.263Z,83.92
2018-05-18T00:15:09.260Z,83.92
2018-05-18T00:15:13.479Z,84.01
2018-05-18T00:15:17.694Z,84.01
2018-05-18T00:15:21.799Z,84.01
2018-05-18T00:15:26.008Z,84.11
2018-05-18T00:15:30.217Z,83.92
2018-05-18T00:15:34.325Z,83.92
2018-05-18T00:15:38.453Z,84.2
2018-05-18T00:15:42.654Z,84.11
2018-05-18T00:15:46.646Z,84.01
2018-05-18T00:15:50.757Z,84.01
2018-05-18T00:15:54.976Z,83.54
2018-05-18T00:15:59.288Z,83.54
2018-05-18T00:16:03.516Z,83.44
2018-05-18T00:16:07.868Z,83.35
2018-05-18T00:16:12.191Z,83.35
2018-05-18T00:16:16.507Z,83.16
2018-05-18T00:16:20.889Z,83.16
2018-05-18T00:16:25.216Z,83.35
2018-05-18T00:16:29.424Z,83.35
2018-05-18T00:16:33.642Z,83.44
2018-05-18T00:16:37.970Z,83.54
2018-05-18T00:16:42.298Z,83.35
2018-05-18T00:16:46.406Z,83.64
2018-05-18T00:16:50.724Z,83.35
2018-05-18T00:16:55.045Z,83.16
2018-05-18T00:16:59.339Z,83.25
2018-05-18T00:17:03.443Z,83.16
2018-05-18T00:17:07.776Z,83.06
2018-05-18T00:17:12.159Z,82.97
2018-05-18T00:17:16.479Z,83.06
2018-05-18T00:17:20.694Z,83.16
2018-05-18T00:17:25.015Z,82.87
2018-05-18T00:17:29.133Z,83.06
2018-05-18T00:17:33.347Z,82.78
2018-05-18T00:17:37.473Z,83.25
2018-05-18T00:17:41.681Z,83.44
2018-05-18T00:17:45.895Z,83.16
2018-05-18T00:17:50.220Z,83.06
2018-05-18T00:17:54.552Z,82.78
2018-05-18T00:17:58.870Z,83.25
2018-05-18T00:18:03.083Z,82.97
2018-05-18T00:18:07.185Z,82.87
2018-05-18T00:18:11.512Z,83.06
2018-05-18T00:18:15.834Z,82.97
2018-05-18T00:18:20.149Z,83.16
2018-05-18T00:18:24.357Z,82.87
2018-05-18T00:18:28.695Z,83.16
2018-05-18T00:18:33.051Z,83.06
2018-05-18T00:18:37.264Z,83.16
2018-05-18T00:18:41.475Z,82.87
2018-05-18T00:18:45.583Z,82.78
2018-05-18T00:18:49.793Z,82.59
2018-05-18T00:18:54.003Z,82.59
2018-05-18T00:18:58.327Z,82.59
2018-05-18T00:19:02.646Z,82.59
2018-05-18T00:19:06.645Z,82.59
2018-05-18T00:19:10.859Z,82.68
2018-05-18T00:19:15.074Z,82.68
2018-05-18T00:19:19.065Z,82.59
2018-05-18T00:19:23.274Z,82.68
2018-05-18T00:19:27.289Z,83.16
2018-05-18T00:19:31.611Z,83.16
2018-05-18T00:19:35.723Z,83.25
2018-05-18T00:19:39.932Z,83.35
2018-05-18T00:19:43.922Z,82.87
2018-05-18T00:19:48.022Z,82.87
2018-05-18T00:19:52.229Z,83.06
2018-05-18T00:19:56.550Z,83.16
2018-05-18T00:20:00.756Z,83.16
2018-05-18T00:20:04.858Z,82.97
2018-05-18T00:20:08.855Z,83.16
2018-05-18T00:20:12.957Z,83.06
2018-05-18T00:20:17.274Z,82.97
2018-05-18T00:20:21.488Z,82.97
2018-05-18T00:20:25.606Z,82.87
2018-05-18T00:20:29.707Z,83.54
2018-05-18T00:20:33.918Z,83.35
2018-05-18T00:20:38.243Z,83.44
2018-05-18T00:20:42.542Z,83.06
2018-05-18T00:20:46.751Z,83.35
2018-05-18T00:20:51.076Z,83.54
2018-05-18T00:20:55.182Z,83.83
2018-05-18T00:20:59.181Z,83.83
2018-05-18T00:21:03.407Z,83.16
2018-05-18T00:21:07.617Z,83.25
2018-05-18T00:21:11.726Z,83.44
2018-05-18T00:21:15.938Z,83.44
2018-05-18T00:21:20.160Z,83.35
2018-05-18T00:21:24.373Z,83.25
2018-05-18T00:21:28.694Z,83.54
2018-05-18T00:21:32.914Z,83.25
2018-05-18T00:21:37.013Z,83.44
2018-05-18T00:21:41.223Z,83.06
2018-05-18T00:21:45.438Z,83.54
2018-05-18T00:21:49.765Z,83.35
2018-05-18T00:21:53.974Z,83.44
2018-05-18T00:21:58.079Z,83.35
2018-05-18T00:22:02.386Z,83.35
2018-05-18T00:22:06.492Z,84.01
2018-05-18T00:22:10.809Z,84.01
2018-05-18T00:22:15.130Z,84.11
2018-05-18T00:22:19.460Z,83.83
2018-05-18T00:22:23.786Z,83.83
2018-05-18T00:22:27.892Z,83.73
2018-05-18T00:22:32.225Z,83.64
2018-05-18T00:22:36.324Z,83.83
2018-05-18T00:22:40.643Z,83.83
2018-05-18T00:22:44.960Z,83.54
2018-05-18T00:22:48.951Z,83.73
2018-05-18T00:22:53.164Z,83.64
2018-05-18T00:22:57.370Z,83.64
2018-05-18T00:23:01.591Z,83.83
2018-05-18T00:23:05.696Z,83.73
2018-05-18T00:23:10.019Z,83.83
2018-05-18T00:23:14.117Z,83.64
2018-05-18T00:23:18.433Z,83.83
2018-05-18T00:23:22.639Z,83.64
2018-05-18T00:23:26.959Z,83.64
2018-05-18T00:23:31.284Z,84.2
2018-05-18T00:23:35.492Z,83.92
2018-05-18T00:23:39.592Z,83.83
2018-05-18T00:23:43.799Z,84.01
2018-05-18T00:23:48.010Z,83.64
2018-05-18T00:23:52.116Z,83.83
2018-05-18T00:23:56.213Z,83.73
2018-05-18T00:24:00.423Z,83.64
2018-05-18T00:24:04.635Z,83.64
2018-05-18T00:24:08.957Z,83.73
2018-05-18T00:24:13.170Z,83.73
2018-05-18T00:24:17.270Z,83.92
2018-05-18T00:24:21.476Z,84.01
2018-05-18T00:24:25.582Z,83.92
2018-05-18T00:24:29.679Z,83.83
2018-05-18T00:24:33.897Z,83.83
2018-05-18T00:24:38.107Z,83.73
2018-05-18T00:24:42.307Z,83.92
2018-05-18T00:24:46.516Z,83.83
2018-05-18T00:24:50.724Z,83.73
2018-05-18T00:24:55.044Z,84.4
2018-05-18T00:24:59.140Z,83.73
2018-05-18T00:25:03.344Z,83.92
2018-05-18T00:25:07.444Z,83.92
2018-05-18T00:25:11.768Z,83.92
2018-05-18T00:25:15.992Z,83.83
2018-05-18T00:25:20.197Z,83.54
2018-05-18T00:25:24.406Z,83.92
2018-05-18T00:25:28.736Z,83.92
2018-05-18T00:25:33.065Z,83.92
2018-05-18T00:25:37.274Z,84.01
2018-05-18T00:25:41.570Z,84.01
2018-05-18T00:25:45.777Z,83.92
2018-05-18T00:25:49.984Z,83.92
2018-05-18T00:25:54.301Z,83.92
2018-05-18T00:25:58.633Z,83.92
2018-05-18T00:26:02.629Z,83.92
2018-05-18T00:26:06.838Z,83.92
2018-05-18T00:26:11.165Z,83.92
2018-05-18T00:26:15.489Z,83.83
2018-05-18T00:26:19.599Z,83.73
2018-05-18T00:26:23.805Z,83.83
2018-05-18T00:26:28.136Z,83.92
2018-05-18T00:26:32.455Z,84.2
2018-05-18T00:26:36.770Z,83.92
2018-05-18T00:26:41.131Z,83.92
2018-05-18T00:26:45.339Z,83.64
2018-05-18T00:26:49.553Z,83.92
2018-05-18T00:26:53.666Z,83.83
2018-05-18T00:26:57.663Z,83.92
2018-05-18T00:27:01.771Z,84.01
2018-05-18T00:27:05.659Z,84.01
2018-05-18T00:27:09.980Z,83.44
2018-05-18T00:27:14.079Z,83.35
2018-05-18T00:27:18.182Z,83.35
2018-05-18T00:27:22.496Z,84.01
2018-05-18T00:27:26.875Z,84.01
2018-05-18T00:27:31.188Z,83.92
2018-05-18T00:27:35.392Z,83.92
2018-05-18T00:27:39.601Z,83.83
2018-05-18T00:27:43.807Z,83.83
2018-05-18T00:27:48.129Z,83.83
2018-05-18T00:27:52.136Z,83.92
2018-05-18T00:27:56.451Z,83.83
2018-05-18T00:28:00.549Z,83.83
2018-05-18T00:28:04.771Z,83.73
2018-05-18T00:28:08.978Z,83.83
2018-05-18T00:28:13.305Z,83.92
2018-05-18T00:28:17.533Z,83.83
2018-05-18T00:28:21.749Z,83.83
2018-05-18T00:28:25.958Z,83.83
2018-05-18T00:28:30.285Z,83.83
2018-05-18T00:28:34.613Z,83.83
2018-05-18T00:28:38.722Z,83.83
2018-05-18T00:28:42.934Z,84.01
2018-05-18T00:28:47.036Z,84.01
2018-05-18T00:28:51.246Z,84.01
2018-05-18T00:28:55.241Z,83.73
2018-05-18T00:28:59.555Z,83.92
2018-05-18T00:29:03.675Z,83.92
2018-05-18T00:29:07.994Z,83.92
2018-05-18T00:29:11.989Z,83.92
2018-05-18T00:29:16.202Z,83.73
2018-05-18T00:29:20.412Z,83.83
2018-05-18T00:29:24.634Z,83.83
2018-05-18T00:29:28.740Z,84.3
2018-05-18T00:29:32.945Z,84.4
2018-05-18T00:29:37.271Z,84.3
2018-05-18T00:29:41.588Z,84.4
2018-05-18T00:29:45.915Z,84.4
2018-05-18T00:29:50.136Z,84.2
2018-05-18T00:29:54.344Z,84.2
2018-05-18T00:29:58.553Z,84.11
2018-05-18T00:30:02.765Z,84.3
2018-05-18T00:30:06.980Z,84.2
2018-05-18T00:30:10.973Z,84.2
2018-05-18T00:30:15.292Z,84.01
2018-05-18T00:30:19.610Z,84.2
2018-05-18T00:30:23.928Z,84.01
2018-05-18T00:30:28.032Z,84.01
2018-05-18T00:30:32.244Z,84.01
2018-05-18T00:30:36.455Z,84.01
2018-05-18T00:30:40.685Z,83.92
2018-05-18T00:30:44.788Z,83.83
2018-05-18T00:30:49.118Z,84.01
2018-05-18T00:30:53.326Z,84.01
2018-05-18T00:30:57.210Z,84.2
2018-05-18T00:31:01.319Z,84.2
2018-05-18T00:31:05.336Z,84.49
2018-05-18T00:31:09.658Z,84.4
2018-05-18T00:31:13.870Z,84.01
2018-05-18T00:31:18.081Z,84.2
2018-05-18T00:31:22.295Z,84.01
2018-05-18T00:31:26.394Z,84.01
2018-05-18T00:31:30.624Z,84.01
2018-05-18T00:31:34.829Z,83.83
2018-05-18T00:31:38.822Z,84.2
2018-05-18T00:31:43.028Z,84.01
2018-05-18T00:31:47.242Z,84.01
2018-05-18T00:31:51.341Z,83.83
2018-05-18T00:31:55.560Z,84.01
2018-05-18T00:31:59.957Z,84.11
2018-05-18T00:32:04.067Z,84.2
2018-05-18T00:32:08.175Z,84.01
2018-05-18T00:32:12.475Z,84.11
2018-05-18T00:32:16.792Z,84.4
2018-05-18T00:32:20.811Z,84.4
2018-05-18T00:32:25.137Z,84.49
2018-05-18T00:32:29.352Z,84.4
2018-05-18T00:32:33.564Z,84.3
2018-05-18T00:32:37.779Z,84.4
2018-05-18T00:32:42.095Z,84.49
2018-05-18T00:32:46.311Z,84.59
2018-05-18T00:32:50.526Z,84.2
2018-05-18T00:32:54.930Z,84.01
2018-05-18T00:32:59.147Z,84.3
2018-05-18T00:33:03.673Z,84.3
2018-05-18T00:33:07.885Z,84.3
2018-05-18T00:33:12.211Z,84.3
2018-05-18T00:33:16.544Z,84.11
2018-05-18T00:33:20.853Z,84.11
2018-05-18T00:33:25.167Z,84.2
2018-05-18T00:33:29.381Z,84.2
2018-05-18T00:33:33.586Z,84.01
2018-05-18T00:33:37.803Z,84.01
2018-05-18T00:33:42.116Z,84.01
2018-05-18T00:33:46.333Z,84.01
2018-05-18T00:33:50.540Z,84.01
2018-05-18T00:33:54.639Z,84.2
2018-05-18T00:33:58.850Z,84.11
2018-05-18T00:34:03.063Z,83.92
2018-05-18T00:34:07.278Z,84.11
2018-05-18T00:34:11.591Z,84.01
2018-05-18T00:34:15.913Z,84.11
2018-05-18T00:34:20.229Z,84.2
2018-05-18T00:34:24.438Z,84.11
2018-05-18T00:34:28.541Z,84.01
2018-05-18T00:34:32.866Z,84.2
2018-05-18T00:34:36.962Z,84.2
2018-05-18T00:34:41.064Z,84.01
2018-05-18T00:34:45.275Z,84.2
2018-05-18T00:34:49.588Z,84.4
2018-05-18T00:34:53.907Z,84.3
2018-05-18T00:34:58.230Z,84.2
2018-05-18T00:35:02.454Z,84.2
2018-05-18T00:35:06.558Z,83.83
2018-05-18T00:35:10.664Z,84.11
2018-05-18T00:35:14.983Z,84.3
2018-05-18T00:35:19.182Z,84.2
2018-05-18T00:35:23.390Z,84.4
2018-05-18T00:35:27.722Z,84.49
2018-05-18T00:35:32.044Z,84.2
2018-05-18T00:35:36.251Z,84.2
2018-05-18T00:35:40.574Z,84.3
2018-05-18T00:35:44.674Z,84.4
2018-05-18T00:35:48.782Z,84.2
2018-05-18T00:35:52.858Z,84.3
2018-05-18T00:35:57.065Z,84.3
2018-05-18T00:36:01.173Z,84.11
2018-05-18T00:36:05.173Z,84.11
2018-05-18T00:36:09.381Z,84.2
2018-05-18T00:36:13.595Z,84.2
2018-05-18T00:36:17.692Z,83.92
2018-05-18T00:36:21.870Z,84.2
2018-05-18T00:36:26.209Z,84.4
2018-05-18T00:36:30.424Z,84.2
2018-05-18T00:36:34.747Z,84.4
2018-05-18T00:36:38.959Z,84.3
2018-05-18T00:36:43.274Z,84.2
2018-05-18T00:36:47.376Z,84.3
2018-05-18T00:36:51.703Z,83.83
2018-05-18T00:36:55.919Z,84.3
2018-05-18T00:37:00.026Z,84.49
2018-05-18T00:37:04.021Z,84.49
2018-05-18T00:37:08.123Z,84.49
2018-05-18T00:37:12.122Z,84.4
2018-05-18T00:37:16.435Z,84.3
2018-05-18T00:37:20.645Z,84.3
2018-05-18T00:37:25.050Z,84.2
2018-05-18T00:37:29.276Z,84.01
2018-05-18T00:37:33.492Z,84.49
2018-05-18T00:37:37.700Z,84.59
2018-05-18T00:37:41.797Z,83.73
2018-05-18T00:37:46.016Z,83.83
2018-05-18T00:37:50.337Z,83.73
2018-05-18T00:37:54.664Z,83.83
2018-05-18T00:37:58.771Z,84.01
2018-05-18T00:38:03.098Z,83.92
2018-05-18T00:38:07.414Z,84.01
2018-05-18T00:38:11.622Z,83.73
2018-05-18T00:38:15.946Z,83.73
2018-05-18T00:38:20.148Z,83.83
2018-05-18T00:38:24.359Z,83.54
2018-05-18T00:38:28.571Z,83.92
2018-05-18T00:38:32.786Z,84.2
2018-05-18T00:38:37.066Z,83.92
2018-05-18T00:38:41.274Z,84.3
2018-05-18T00:38:45.377Z,83.92
2018-05-18T00:38:49.702Z,84.01
2018-05-18T00:38:53.935Z,84.01
2018-05-18T00:38:58.033Z,84.11
2018-05-18T00:39:02.045Z,84.3
2018-05-18T00:39:06.254Z,84.01
2018-05-18T00:39:10.472Z,83.44
2018-05-18T00:39:14.788Z,83.64
2018-05-18T00:39:18.969Z,83.64
2018-05-18T00:39:23.193Z,83.44
2018-05-18T00:39:27.583Z,83.73
2018-05-18T00:39:31.919Z,83.35
2018-05-18T00:39:36.237Z,83.44
2018-05-18T00:39:40.350Z,83.64
2018-05-18T00:39:44.665Z,84.01
2018-05-18T00:39:48.979Z,84.3
2018-05-18T00:39:53.385Z,83.92
2018-05-18T00:39:57.710Z,83.44
2018-05-18T00:40:02.259Z,84.3
2018-05-18T00:40:07.094Z,84.11
2018-05-18T00:40:11.302Z,84.01
2018-05-18T00:40:15.514Z,84.11
2018-05-18T00:40:19.645Z,83.54
2018-05-18T00:40:23.977Z,84.01
2018-05-18T00:40:28.310Z,84.01
2018-05-18T00:40:32.711Z,84.01
2018-05-18T00:40:36.918Z,84.2
2018-05-18T00:40:41.241Z,84.01
2018-05-18T00:40:45.447Z,84.2
2018-05-18T00:40:49.661Z,84.2
2018-05-18T00:40:53.984Z,83.64
2018-05-18T00:40:58.195Z,83.64
2018-05-18T00:41:02.299Z,83.35
2018-05-18T00:41:06.316Z,83.35
2018-05-18T00:41:10.307Z,83.83
2018-05-18T00:41:14.621Z,83.64
2018-05-18T00:41:18.942Z,83.54
2018-05-18T00:41:23.171Z,83.64
2018-05-18T00:41:27.379Z,83.64
2018-05-18T00:41:31.481Z,83.44
2018-05-18T00:41:35.693Z,83.73
2018-05-18T00:41:39.803Z,83.44
2018-05-18T00:41:44.012Z,83.64
2018-05-18T00:41:48.114Z,83.64
2018-05-18T00:41:52.440Z,83.64
2018-05-18T00:41:56.326Z,83.73
2018-05-18T00:42:00.538Z,83.44
2018-05-18T00:42:04.680Z,83.35
2018-05-18T00:42:08.894Z,83.35
2018-05-18T00:42:13.100Z,83.73
2018-05-18T00:42:17.455Z,83.35
2018-05-18T00:42:21.674Z,83.54
2018-05-18T00:42:25.987Z,83.44
2018-05-18T00:42:30.099Z,83.54
2018-05-18T00:42:34.307Z,83.35
2018-05-18T00:42:38.520Z,84.11
2018-05-18T00:42:42.729Z,84.11
2018-05-18T00:42:46.935Z,83.83
2018-05-18T00:42:51.261Z,84.11
2018-05-18T00:42:55.583Z,84.11
2018-05-18T00:42:59.797Z,84.01
2018-05-18T00:43:03.914Z,83.92
2018-05-18T00:43:08.017Z,84.01
2018-05-18T00:43:12.231Z,84.01
2018-05-18T00:43:16.542Z,84.01
2018-05-18T00:43:20.426Z,83.54
2018-05-18T00:43:24.422Z,83.83
2018-05-18T00:43:28.533Z,83.64
2018-05-18T00:43:32.645Z,83.83
2018-05-18T00:43:36.534Z,83.73
2018-05-18T00:43:40.743Z,83.83
2018-05-18T00:43:44.959Z,83.73
2018-05-18T00:43:49.169Z,83.92
2018-05-18T00:43:53.490Z,83.54
2018-05-18T00:43:57.592Z,83.44
2018-05-18T00:44:01.915Z,83.44
2018-05-18T00:44:05.812Z,84.01
2018-05-18T00:44:09.821Z,84.01
2018-05-18T00:44:14.040Z,83.92
2018-05-18T00:44:18.259Z,83.83
2018-05-18T00:44:22.571Z,83.92
2018-05-18T00:44:26.925Z,83.92
2018-05-18T00:44:31.233Z,83.83
2018-05-18T00:44:35.452Z,83.73
2018-05-18T00:44:39.783Z,83.73
2018-05-18T00:44:43.889Z,83.73
2018-05-18T00:44:47.999Z,84.4
2018-05-18T00:44:52.214Z,84.4
2018-05-18T00:44:56.530Z,84.49
2018-05-18T00:45:00.636Z,84.4
2018-05-18T00:45:04.638Z,84.3
2018-05-18T00:45:08.740Z,84.4
2018-05-18T00:45:12.842Z,84.11
2018-05-18T00:45:17.061Z,84.3
2018-05-18T00:45:21.268Z,84.3
2018-05-18T00:45:25.478Z,84.3
2018-05-18T00:45:29.849Z,83.83
2018-05-18T00:45:34.168Z,83.92
2018-05-18T00:45:38.374Z,84.01
2018-05-18T00:45:42.583Z,84.11
2018-05-18T00:45:46.812Z,83.83
2018-05-18T00:45:51.025Z,83.83
2018-05-18T00:45:55.351Z,83.64
2018-05-18T00:45:59.346Z,84.2
2018-05-18T00:46:03.453Z,83.64
2018-05-18T00:46:07.456Z,83.92
2018-05-18T00:46:11.664Z,84.01
2018-05-18T00:46:15.867Z,83.92
2018-05-18T00:46:20.077Z,83.92
2018-05-18T00:46:24.402Z,83.83
2018-05-18T00:46:28.614Z,83.73
2018-05-18T00:46:32.946Z,84.01
2018-05-18T00:46:37.286Z,84.3
2018-05-18T00:46:41.497Z,84.01
2018-05-18T00:46:45.595Z,84.4
2018-05-18T00:46:49.896Z,84.01
2018-05-18T00:46:54.217Z,84.3
2018-05-18T00:46:58.318Z,84.3
2018-05-18T00:47:02.646Z,84.4
2018-05-18T00:47:06.640Z,84.3
2018-05-18T00:47:10.635Z,84.4
2018-05-18T00:47:14.738Z,84.4
2018-05-18T00:47:19.056Z,84.11
2018-05-18T00:47:23.167Z,84.2
2018-05-18T00:47:27.489Z,84.4
2018-05-18T00:47:31.808Z,84.11
2018-05-18T00:47:36.134Z,84.2
2018-05-18T00:47:40.346Z,83.83
2018-05-18T00:47:44.451Z,83.92
2018-05-18T00:47:48.560Z,84.01
2018-05-18T00:47:52.660Z,84.2
2018-05-18T00:47:57.025Z,84.11
2018-05-18T00:48:01.232Z,84.3
2018-05-18T00:48:05.337Z,84.4
2018-05-18T00:48:09.442Z,84.3
2018-05-18T00:48:13.762Z,84.2
2018-05-18T00:48:17.864Z,84.2
2018-05-18T00:48:22.196Z,84.3
2018-05-18T00:48:26.518Z,84.69
2018-05-18T00:48:30.728Z,84.78
2018-05-18T00:48:35.043Z,84.88
2018-05-18T00:48:39.361Z,85.16
2018-05-18T00:48:43.586Z,84.69
2018-05-18T00:48:47.690Z,84.88
2018-05-18T00:48:51.897Z,84.59
2018-05-18T00:48:56.105Z,84.69
2018-05-18T00:49:00.323Z,84.59
2018-05-18T00:49:04.528Z,84.88
2018-05-18T00:49:08.744Z,84.88
2018-05-18T00:49:12.967Z,84.01
2018-05-18T00:49:17.074Z,84.01
2018-05-18T00:49:21.287Z,84.11
2018-05-18T00:49:25.435Z,84.49
2018-05-18T00:49:29.544Z,84.2
2018-05-18T00:49:33.861Z,84.01
2018-05-18T00:49:38.072Z,84.11
2018-05-18T00:49:42.280Z,84.2
2018-05-18T00:49:46.595Z,84.01
2018-05-18T00:49:50.807Z,84.2
2018-05-18T00:49:55.037Z,84.3
2018-05-18T00:49:59.241Z,84.49
2018-05-18T00:50:03.342Z,84.3
2018-05-18T00:50:07.336Z,84.59
2018-05-18T00:50:11.552Z,84.88
2018-05-18T00:50:15.769Z,84.3
2018-05-18T00:50:19.985Z,84.3
2018-05-18T00:50:24.235Z,84.11
2018-05-18T00:50:28.662Z,83.83
2018-05-18T00:50:32.881Z,84.4
2018-05-18T00:50:37.197Z,84.49
2018-05-18T00:50:41.409Z,84.2
2018-05-18T00:50:45.615Z,84.69
2018-05-18T00:50:49.826Z,84.78
2018-05-18T00:50:54.144Z,84.2
2018-05-18T00:50:58.248Z,84.11
2018-05-18T00:51:02.655Z,84.2
2018-05-18T00:51:06.647Z,84.49
2018-05-18T00:51:10.962Z,84.88
2018-05-18T00:51:14.970Z,84.59
2018-05-18T00:51:19.071Z,84.59
2018-05-18T00:51:23.276Z,84.88
2018-05-18T00:51:27.488Z,85.06
2018-05-18T00:51:31.896Z,84.69
2018-05-18T00:51:36.110Z,85.06
2018-05-18T00:51:40.423Z,84.78
2018-05-18T00:51:44.631Z,84.78
2018-05-18T00:51:48.847Z,84.4
2018-05-18T00:51:53.162Z,84.78
2018-05-18T00:51:57.477Z,84.59
2018-05-18T00:52:01.853Z,85.16
2018-05-18T00:52:05.951Z,84.97
2018-05-18T00:52:09.943Z,84.88
2018-05-18T00:52:14.263Z,85.06
2018-05-18T00:52:18.366Z,85.16
2018-05-18T00:52:22.573Z,85.35
2018-05-18T00:52:26.888Z,84.88
2018-05-18T00:52:31.209Z,85.06
2018-05-18T00:52:35.419Z,85.16
2018-05-18T00:52:39.807Z,84.78
2018-05-18T00:52:44.130Z,84.88
2018-05-18T00:52:48.350Z,84.69
2018-05-18T00:52:52.457Z,84.69
2018-05-18T00:52:56.684Z,84.88
2018-05-18T00:53:00.901Z,84.78
2018-05-18T00:53:05.007Z,84.78
2018-05-18T00:53:09.336Z,84.88
2018-05-18T00:53:13.545Z,84.78
2018-05-18T00:53:17.869Z,84.88
2018-05-18T00:53:22.198Z,84.97
2018-05-18T00:53:26.407Z,85.06
2018-05-18T00:53:30.617Z,84.88
2018-05-18T00:53:34.828Z,84.78
2018-05-18T00:53:38.938Z,84.69
2018-05-18T00:53:43.227Z,84.88
2018-05-18T00:53:47.433Z,84.49
2018-05-18T00:53:51.639Z,84.59
2018-05-18T00:53:55.857Z,84.88
2018-05-18T00:54:00.063Z,84.97
2018-05-18T00:54:04.174Z,84.59
2018-05-18T00:54:08.393Z,84.78
2018-05-18T00:54:12.709Z,85.16
2018-05-18T00:54:16.716Z,84.97
2018-05-18T00:54:21.115Z,84.78
2018-05-18T00:54:25.349Z,84.78
2018-05-18T00:54:29.449Z,85.06